Time;durP1;ratioP1;P1;durP2;ratioP2;P2;SDS_P1;SDS_P2;PMS_P1;PMS_P2;Temp;Humidity;BMP_temperature;BMP_pressure;BME280_temperature;BME280_humidity;BME280_pressure;Samples;Min_cycle;Max_cycle;Signal;HPM_P1;HPM_P2
2023/04/18 00:00:11;;;;;;;;;;;10.30;99.90;10.80;99525.00;;;;336355;28;95892;-91
2023/04/18 00:00:23;;;;;;;;;;;10.40;99.90;10.80;99522.00;;;;335640;29;83186;-91
2023/04/18 00:00:35;;;;;;;;;;;10.30;99.90;10.80;99515.00;;;;332336;29;95413;-91
2023/04/18 00:00:48;;;;;;;;;;;10.30;99.90;10.70;99526.00;;;;333005;29;82549;-91
2023/04/18 00:01:00;;;;;;;;;;;10.30;99.90;10.70;99520.00;;;;332407;29;95726;-91
2023/04/18 00:01:13;;;;;;;;;;;10.30;99.90;10.70;99523.00;;;;336003;29;82500;-91
2023/04/18 00:01:25;;;;;;;;;;;10.30;99.90;10.80;99515.00;;;;335105;29;95815;-92
2023/04/18 00:01:37;;;;;;;;;;;10.30;99.90;10.80;99518.00;;;;337066;28;83418;-90
2023/04/18 00:01:50;;;;;;;;;;;10.30;99.90;10.80;99529.00;;;;335353;29;95508;-90
2023/04/18 00:02:02;;;;;;;;;;;10.40;99.90;10.90;99518.00;;;;335687;29;82597;-91
2023/04/18 00:02:16;;;;;;;;;;;10.40;99.90;10.90;99517.00;;;;335081;29;95544;-91
2023/04/18 00:02:28;;;;;;;;;;;10.30;99.90;10.90;99516.00;;;;335911;29;83464;-91
2023/04/18 00:02:42;;;;;;;;;;;10.30;99.90;10.90;99513.00;;;;336239;28;96916;-91
2023/04/18 00:02:55;;;;;;;;;;;10.30;99.90;10.90;99515.00;;;;337321;28;83306;-90
2023/04/18 00:03:08;;;;;;;;;;;10.40;99.90;10.80;99516.00;;;;335153;29;94307;-90
2023/04/18 00:03:20;;;;;;;;;;;10.40;99.90;10.80;99513.00;;;;338469;28;83545;-91
2023/04/18 00:03:33;;;;;;;;;;;10.40;99.90;10.70;99520.00;;;;335081;29;96954;-91
2023/04/18 00:03:46;;;;;;;;;;;10.40;99.90;10.80;99523.00;;;;337172;28;82545;-92
2023/04/18 00:03:58;;;;;;;;;;;10.30;99.90;10.80;99511.00;;;;334847;29;94857;-91
2023/04/18 00:04:10;;;;;;;;;;;10.40;99.90;10.70;99523.00;;;;335935;29;83383;-91
2023/04/18 00:04:24;;;;;;;;;;;10.40;99.90;10.70;99505.00;;;;336475;28;96870;-91
2023/04/18 00:04:36;;;;;;;;;;;10.30;99.90;10.80;99517.00;;;;335818;29;82478;-90
2023/04/18 00:04:49;;;;;;;;;;;10.30;99.90;10.80;99521.00;;;;336180;28;95762;-90
2023/04/18 00:05:02;;;;;;;;;;;10.30;99.90;10.70;99521.00;;;;334511;29;82603;-90
2023/04/18 00:05:16;;;;;;;;;;;10.30;99.90;10.60;99514.00;;;;336489;28;95989;-91
2023/04/18 00:05:28;;;;;;;;;;;10.30;99.90;10.60;99524.00;;;;334741;29;83447;-90
2023/04/18 00:05:42;;;;;;;;;;;10.30;99.90;10.50;99511.00;;;;335162;29;98009;-91
2023/04/18 00:05:54;;;;;;;;;;;10.30;99.90;10.50;99513.00;;;;336027;29;82442;-91
2023/04/18 00:06:06;;;;;;;;;;;10.30;99.90;10.60;99518.00;;;;336373;28;95375;-91
2023/04/18 00:06:20;;;;;;;;;;;10.30;99.90;10.70;99508.00;;;;335935;29;82465;-91
2023/04/18 00:06:34;;;;;;;;;;;10.30;99.90;10.60;99515.00;;;;336451;28;94616;-91
2023/04/18 00:06:48;;;;;;;;;;;10.30;99.90;10.60;99518.00;;;;335884;29;82461;-90
2023/04/18 00:07:00;;;;;;;;;;;10.30;99.90;10.70;99525.00;;;;335362;29;94519;-90
2023/04/18 00:07:16;;;;;;;;;;;10.30;99.90;10.70;99513.00;;;;337286;28;82586;-91
2023/04/18 00:07:27;;;;;;;;;;;10.30;99.90;10.70;99512.00;;;;335089;29;94534;-91
2023/04/18 00:07:40;;;;;;;;;;;10.30;99.90;10.70;99516.00;;;;336117;29;82437;-91
2023/04/18 00:07:52;;;;;;;;;;;10.30;99.90;10.70;99511.00;;;;336571;28;96442;-91
2023/04/18 00:08:04;;;;;;;;;;;10.30;99.90;10.70;99518.00;;;;336117;29;83534;-91
2023/04/18 00:08:16;;;;;;;;;;;10.30;99.90;10.70;99516.00;;;;336818;28;93545;-91
2023/04/18 00:08:28;;;;;;;;;;;10.30;99.90;10.70;99518.00;;;;335848;29;83521;-91
2023/04/18 00:08:40;;;;;;;;;;;10.30;99.90;10.70;99517.00;;;;335204;29;94553;-91
2023/04/18 00:08:51;;;;;;;;;;;10.30;99.90;10.60;99516.00;;;;334649;29;82481;-91
2023/04/18 00:09:03;;;;;;;;;;;10.30;99.90;10.70;99511.00;;;;335138;29;96594;-90
2023/04/18 00:09:15;;;;;;;;;;;10.30;99.90;10.70;99515.00;;;;334700;29;82456;-91
2023/04/18 00:09:27;;;;;;;;;;;10.30;99.90;10.60;99517.00;;;;334981;29;95572;-90
2023/04/18 00:09:40;;;;;;;;;;;10.30;99.90;10.70;99520.00;;;;335766;29;83446;-91
2023/04/18 00:09:52;;;;;;;;;;;10.30;99.90;10.70;99526.00;;;;333535;29;95148;-91
2023/04/18 00:10:04;;;;;;;;;;;10.30;99.90;10.70;99519.00;;;;335883;29;83454;-91
2023/04/18 00:10:16;;;;;;;;;;;10.30;99.90;10.70;99518.00;;;;332455;29;95178;-91
2023/04/18 00:10:28;;;;;;;;;;;10.30;99.90;10.60;99516.00;;;;334412;29;83493;-91
2023/04/18 00:10:40;;;;;;;;;;;10.30;99.90;10.60;99516.00;;;;334907;29;94535;-90
2023/04/18 00:10:52;;;;;;;;;;;10.30;99.90;10.60;99508.00;;;;334654;29;82467;-91
2023/04/18 00:11:04;;;;;;;;;;;10.30;99.90;10.60;99514.00;;;;335183;29;93108;-91
2023/04/18 00:11:16;;;;;;;;;;;10.30;99.90;10.70;99513.00;;;;338431;28;82579;-90
2023/04/18 00:11:29;;;;;;;;;;;10.30;99.90;10.70;99519.00;;;;333750;29;96026;-90
2023/04/18 00:11:41;;;;;;;;;;;10.30;99.90;10.70;99517.00;;;;337182;28;82441;-91
2023/04/18 00:11:53;;;;;;;;;;;10.30;99.90;10.60;99519.00;;;;336063;28;96612;-91
2023/04/18 00:12:05;;;;;;;;;;;10.30;99.90;10.70;99517.00;;;;338329;28;83507;-91
2023/04/18 00:12:17;;;;;;;;;;;10.30;99.90;10.70;99513.00;;;;336434;28;93009;-91
2023/04/18 00:12:30;;;;;;;;;;;10.30;99.90;10.60;99518.00;;;;335946;29;82468;-91
2023/04/18 00:12:42;;;;;;;;;;;10.30;99.90;10.70;99522.00;;;;335192;29;93846;-90
2023/04/18 00:12:54;;;;;;;;;;;10.30;99.90;10.70;99521.00;;;;333103;29;82463;-91
2023/04/18 00:13:06;;;;;;;;;;;10.30;99.90;10.60;99516.00;;;;333798;29;95699;-91
2023/04/18 00:13:18;;;;;;;;;;;10.30;99.90;10.70;99518.00;;;;334342;28;83534;-91
2023/04/18 00:13:29;;;;;;;;;;;10.30;99.90;10.70;99513.00;;;;335044;29;95271;-90
2023/04/18 00:13:41;;;;;;;;;;;10.30;99.90;10.70;99518.00;;;;334710;29;82436;-91
2023/04/18 00:13:54;;;;;;;;;;;10.30;99.90;10.80;99510.00;;;;335215;29;96962;-91
2023/04/18 00:14:06;;;;;;;;;;;10.30;99.90;10.70;99518.00;;;;333434;29;82565;-91
2023/04/18 00:14:19;;;;;;;;;;;10.30;99.90;10.80;99514.00;;;;335014;29;96683;-91
2023/04/18 00:14:33;;;;;;;;;;;10.30;99.90;10.80;99519.00;;;;334449;29;82519;-91
2023/04/18 00:14:45;;;;;;;;;;;10.30;99.90;10.70;99515.00;;;;332328;29;95332;-91
2023/04/18 00:14:57;;;;;;;;;;;10.30;99.90;10.70;99518.00;;;;334265;29;83532;-90
2023/04/18 00:15:10;;;;;;;;;;;10.30;99.90;10.70;99519.00;;;;333551;29;94985;-91
2023/04/18 00:15:22;;;;;;;;;;;10.30;99.90;10.70;99511.00;;;;335432;28;83573;-91
2023/04/18 00:15:34;;;;;;;;;;;10.30;99.90;10.80;99509.00;;;;333531;29;93852;-91
2023/04/18 00:15:46;;;;;;;;;;;10.30;99.90;10.80;99508.00;;;;333016;29;83235;-91
2023/04/18 00:15:58;;;;;;;;;;;10.30;99.90;10.80;99510.00;;;;333328;29;95080;-91
2023/04/18 00:16:12;;;;;;;;;;;10.30;99.90;10.80;99521.00;;;;335798;29;83465;-91
2023/04/18 00:16:24;;;;;;;;;;;10.30;99.90;10.80;99510.00;;;;334914;29;97102;-91
2023/04/18 00:16:36;;;;;;;;;;;10.30;99.90;10.80;99512.00;;;;334344;29;83314;-91
2023/04/18 00:16:48;;;;;;;;;;;10.30;99.90;10.70;99514.00;;;;333651;29;93849;-91
2023/04/18 00:17:03;;;;;;;;;;;10.30;99.90;10.70;99516.00;;;;335720;29;82452;-92
2023/04/18 00:17:15;;;;;;;;;;;10.30;99.90;10.70;99514.00;;;;335211;29;94986;-91
2023/04/18 00:17:27;;;;;;;;;;;10.30;99.90;10.70;99508.00;;;;334599;29;82592;-91
2023/04/18 00:17:39;;;;;;;;;;;10.30;99.90;10.70;99503.00;;;;333541;29;94163;-91
2023/04/18 00:17:51;;;;;;;;;;;10.30;99.90;10.60;99509.00;;;;333180;29;82594;-91
2023/04/18 00:18:04;;;;;;;;;;;10.30;99.90;10.70;99501.00;;;;332134;29;97917;-91
2023/04/18 00:18:16;;;;;;;;;;;10.30;99.90;10.60;99507.00;;;;334156;29;83361;-91
2023/04/18 00:18:28;;;;;;;;;;;10.30;99.90;10.60;99511.00;;;;334718;29;95751;-91
2023/04/18 00:18:40;;;;;;;;;;;10.30;99.90;10.50;99498.00;;;;332855;29;82553;-91
2023/04/18 00:18:53;;;;;;;;;;;10.30;99.90;10.60;99507.00;;;;333257;29;95671;-91
2023/04/18 00:19:05;;;;;;;;;;;10.30;99.90;10.50;99500.00;;;;334510;29;82318;-91
2023/04/18 00:19:17;;;;;;;;;;;10.30;99.90;10.50;99509.00;;;;330872;29;95644;-90
2023/04/18 00:19:29;;;;;;;;;;;10.30;99.90;10.40;99507.00;;;;332945;29;83491;-91
2023/04/18 00:19:42;;;;;;;;;;;10.20;99.90;10.30;99500.00;;;;333677;29;95639;-91
2023/04/18 00:19:55;;;;;;;;;;;10.20;99.90;10.30;99506.00;;;;334425;29;83135;-90
2023/04/18 00:20:09;;;;;;;;;;;10.20;99.90;10.40;99509.00;;;;330901;29;96927;-90
2023/04/18 00:20:25;;;;;;;;;;;10.20;99.90;10.50;99509.00;;;;333029;29;82497;-91
2023/04/18 00:20:38;;;;;;;;;;;10.20;99.90;10.50;99506.00;;;;333425;29;94439;-91
2023/04/18 00:20:49;;;;;;;;;;;10.20;99.90;10.40;99507.00;;;;336876;28;82358;-91
2023/04/18 00:21:02;;;;;;;;;;;10.10;99.90;10.40;99509.00;;;;335909;28;94672;-91
2023/04/18 00:21:15;;;;;;;;;;;10.10;99.90;10.40;99508.00;;;;334050;29;82590;-91
2023/04/18 00:21:28;;;;;;;;;;;10.10;99.90;10.50;99498.00;;;;333170;29;95828;-90
2023/04/18 00:21:43;;;;;;;;;;;10.10;99.90;10.40;99511.00;;;;336678;28;83484;-90
2023/04/18 00:21:56;;;;;;;;;;;10.10;99.90;10.50;99506.00;;;;334573;29;95600;-91
2023/04/18 00:22:12;;;;;;;;;;;10.10;99.90;10.40;99509.00;;;;335658;29;82421;-90
2023/04/18 00:22:24;;;;;;;;;;;10.10;99.90;10.40;99506.00;;;;334798;29;97001;-89
2023/04/18 00:22:41;;;;;;;;;;;10.10;99.90;10.50;99509.00;;;;333991;29;83587;-91
2023/04/18 00:22:53;;;;;;;;;;;10.10;99.90;10.50;99512.00;;;;335867;28;94962;-91
2023/04/18 00:23:06;;;;;;;;;;;10.10;99.90;10.50;99506.00;;;;335549;29;83356;-90
2023/04/18 00:23:21;;;;;;;;;;;10.10;99.90;10.50;99505.00;;;;333510;29;94581;-91
2023/04/18 00:23:34;;;;;;;;;;;10.10;99.90;10.50;99510.00;;;;335697;29;83197;-90
2023/04/18 00:23:45;;;;;;;;;;;10.10;99.90;10.50;99506.00;;;;333524;29;96341;-91
2023/04/18 00:23:57;;;;;;;;;;;10.10;99.90;10.50;99505.00;;;;335464;29;83389;-91
2023/04/18 00:24:09;;;;;;;;;;;10.10;99.90;10.50;99509.00;;;;336293;28;95259;-91
2023/04/18 00:24:21;;;;;;;;;;;10.10;99.90;10.50;99506.00;;;;335646;29;83405;-91
2023/04/18 00:24:33;;;;;;;;;;;10.10;99.90;10.50;99513.00;;;;335951;28;95803;-91
2023/04/18 00:24:45;;;;;;;;;;;10.10;99.90;10.50;99512.00;;;;333094;29;83601;-91
2023/04/18 00:24:57;;;;;;;;;;;10.10;99.90;10.40;99509.00;;;;333524;29;95920;-91
2023/04/18 00:25:09;;;;;;;;;;;10.10;99.90;10.40;99507.00;;;;331676;29;83411;-90
2023/04/18 00:25:21;;;;;;;;;;;10.10;99.90;10.50;99509.00;;;;333440;29;95337;-91
2023/04/18 00:25:32;;;;;;;;;;;10.10;99.90;10.50;99501.00;;;;334321;29;83275;-90
2023/04/18 00:25:44;;;;;;;;;;;10.10;99.90;10.50;99506.00;;;;334827;29;96167;-91
2023/04/18 00:25:56;;;;;;;;;;;10.10;99.90;10.50;99505.00;;;;335629;28;83537;-91
2023/04/18 00:26:08;;;;;;;;;;;10.10;99.90;10.50;99504.00;;;;332139;29;96000;-91
2023/04/18 00:26:20;;;;;;;;;;;10.10;99.90;10.50;99508.00;;;;334551;29;82351;-91
2023/04/18 00:26:32;;;;;;;;;;;10.10;99.90;10.50;99508.00;;;;336137;28;97193;-91
2023/04/18 00:26:44;;;;;;;;;;;10.10;99.90;10.50;99509.00;;;;334296;29;83207;-91
2023/04/18 00:26:56;;;;;;;;;;;10.10;99.90;10.50;99503.00;;;;333674;29;93499;-91
2023/04/18 00:27:07;;;;;;;;;;;10.10;99.90;10.50;99504.00;;;;335588;29;83519;-91
2023/04/18 00:27:19;;;;;;;;;;;10.10;99.90;10.50;99509.00;;;;333642;29;97056;-91
2023/04/18 00:27:31;;;;;;;;;;;10.10;99.90;10.50;99504.00;;;;334721;29;82398;-90
2023/04/18 00:27:43;;;;;;;;;;;10.10;99.90;10.50;99506.00;;;;335189;29;92694;-91
2023/04/18 00:27:55;;;;;;;;;;;10.10;99.90;10.50;99504.00;;;;335655;29;82252;-90
2023/04/18 00:28:07;;;;;;;;;;;10.10;99.90;10.40;99509.00;;;;333840;29;97094;-90
2023/04/18 00:28:19;;;;;;;;;;;10.10;99.90;10.50;99505.00;;;;335669;29;83354;-91
2023/04/18 00:28:30;;;;;;;;;;;10.10;99.90;10.40;99505.00;;;;335825;28;97039;-91
2023/04/18 00:28:42;;;;;;;;;;;10.10;99.90;10.50;99513.00;;;;336788;28;83563;-91
2023/04/18 00:28:54;;;;;;;;;;;10.10;99.90;10.50;99512.00;;;;335887;28;94533;-91
2023/04/18 00:29:06;;;;;;;;;;;10.10;99.90;10.40;99508.00;;;;336971;28;83357;-91
2023/04/18 00:29:18;;;;;;;;;;;10.10;99.90;10.50;99503.00;;;;334876;29;96633;-90
2023/04/18 00:29:33;;;;;;;;;;;10.10;99.90;10.50;99513.00;;;;335426;28;83480;-91
2023/04/18 00:29:45;;;;;;;;;;;10.10;99.90;10.60;99509.00;;;;333315;29;94537;-91
2023/04/18 00:29:57;;;;;;;;;;;10.10;99.90;10.50;99506.00;;;;333935;29;82502;-91
2023/04/18 00:30:09;;;;;;;;;;;10.10;99.90;10.40;99510.00;;;;333780;29;96636;-91
2023/04/18 00:30:21;;;;;;;;;;;10.10;99.90;10.50;99513.00;;;;334303;29;82326;-91
2023/04/18 00:30:33;;;;;;;;;;;10.10;99.90;10.50;99510.00;;;;334803;29;97568;-91
2023/04/18 00:30:45;;;;;;;;;;;10.10;99.90;10.50;99507.00;;;;335488;29;83404;-91
2023/04/18 00:30:57;;;;;;;;;;;10.10;99.90;10.40;99519.00;;;;333281;29;95614;-91
2023/04/18 00:31:09;;;;;;;;;;;10.10;99.90;10.40;99508.00;;;;335553;29;82488;-90
2023/04/18 00:31:21;;;;;;;;;;;10.10;99.90;10.40;99509.00;;;;334620;29;96579;-91
2023/04/18 00:31:33;;;;;;;;;;;10.10;99.90;10.50;99509.00;;;;332915;29;83441;-91
2023/04/18 00:31:44;;;;;;;;;;;10.10;99.90;10.50;99504.00;;;;335860;28;95604;-91
2023/04/18 00:31:56;;;;;;;;;;;10.10;99.90;10.50;99508.00;;;;335280;29;83563;-91
2023/04/18 00:32:08;;;;;;;;;;;10.10;99.90;10.40;99511.00;;;;334614;29;94524;-91
2023/04/18 00:32:20;;;;;;;;;;;10.10;99.90;10.50;99511.00;;;;332733;29;82665;-91
2023/04/18 00:32:32;;;;;;;;;;;10.10;99.90;10.50;99514.00;;;;333279;29;95775;-91
2023/04/18 00:32:44;;;;;;;;;;;10.10;99.90;10.50;99512.00;;;;336637;28;83416;-91
2023/04/18 00:32:56;;;;;;;;;;;10.10;99.90;10.50;99514.00;;;;334831;29;92961;-91
2023/04/18 00:33:08;;;;;;;;;;;10.10;99.90;10.50;99505.00;;;;334305;29;83449;-91
2023/04/18 00:33:20;;;;;;;;;;;10.10;99.90;10.50;99512.00;;;;336125;28;94602;-92
2023/04/18 00:33:33;;;;;;;;;;;10.10;99.90;10.30;99517.00;;;;335565;29;83384;-91
2023/04/18 00:33:44;;;;;;;;;;;10.10;99.90;10.30;99518.00;;;;333458;29;94611;-91
2023/04/18 00:33:56;;;;;;;;;;;10.00;99.90;10.40;99510.00;;;;335534;29;83374;-91
2023/04/18 00:34:08;;;;;;;;;;;10.00;99.90;10.40;99510.00;;;;336055;28;95291;-91
2023/04/18 00:34:20;;;;;;;;;;;10.00;99.90;10.50;99500.00;;;;335581;29;83307;-91
2023/04/18 00:34:32;;;;;;;;;;;10.00;99.90;10.50;99502.00;;;;333428;29;95447;-91
2023/04/18 00:34:44;;;;;;;;;;;10.00;99.90;10.40;99508.00;;;;335409;29;82599;-92
2023/04/18 00:34:56;;;;;;;;;;;10.00;99.90;10.30;99500.00;;;;333283;29;95550;-91
2023/04/18 00:35:08;;;;;;;;;;;10.10;99.90;10.30;99510.00;;;;333885;29;82607;-91
2023/04/18 00:35:20;;;;;;;;;;;10.00;99.90;10.40;99508.00;;;;336427;28;95516;-90
2023/04/18 00:35:33;;;;;;;;;;;10.00;99.90;10.50;99506.00;;;;337734;28;82484;-91
2023/04/18 00:35:45;;;;;;;;;;;10.00;99.90;10.40;99508.00;;;;333122;29;94575;-90
2023/04/18 00:35:57;;;;;;;;;;;10.00;99.90;10.40;99500.00;;;;335113;29;82559;-91
2023/04/18 00:36:09;;;;;;;;;;;10.00;99.90;10.40;99500.00;;;;330948;29;94346;-90
2023/04/18 00:36:21;;;;;;;;;;;10.00;99.90;10.40;99505.00;;;;335381;29;83527;-91
2023/04/18 00:36:32;;;;;;;;;;;10.10;99.90;10.40;99506.00;;;;333245;29;96550;-91
2023/04/18 00:36:44;;;;;;;;;;;10.00;99.90;10.40;99508.00;;;;335245;29;83394;-91
2023/04/18 00:36:56;;;;;;;;;;;10.00;99.90;10.40;99507.00;;;;334551;29;95783;-91
2023/04/18 00:37:08;;;;;;;;;;;10.00;99.90;10.40;99509.00;;;;335357;29;83541;-91
2023/04/18 00:37:20;;;;;;;;;;;10.00;99.90;10.40;99505.00;;;;333563;29;94585;-91
2023/04/18 00:37:31;;;;;;;;;;;10.00;99.90;10.50;99503.00;;;;335273;29;83513;-91
2023/04/18 00:37:43;;;;;;;;;;;10.10;99.90;10.50;99502.00;;;;334539;29;95448;-91
2023/04/18 00:37:55;;;;;;;;;;;10.10;99.90;10.40;99509.00;;;;335243;29;83297;-91
2023/04/18 00:38:07;;;;;;;;;;;10.10;99.90;10.40;99502.00;;;;334490;29;95746;-91
2023/04/18 00:38:19;;;;;;;;;;;10.00;99.90;10.40;99506.00;;;;334249;29;83353;-91
2023/04/18 00:38:31;;;;;;;;;;;10.10;99.90;10.50;99503.00;;;;334727;29;95608;-91
2023/04/18 00:38:43;;;;;;;;;;;10.10;99.90;10.50;99497.00;;;;334159;29;82546;-91
2023/04/18 00:38:55;;;;;;;;;;;10.10;99.90;10.50;99501.00;;;;336052;28;94121;-92
2023/04/18 00:39:07;;;;;;;;;;;10.00;99.90;10.40;99499.00;;;;338353;28;82393;-91
2023/04/18 00:39:18;;;;;;;;;;;10.10;99.90;10.40;99504.00;;;;333484;29;95451;-90
2023/04/18 00:39:30;;;;;;;;;;;10.00;99.90;10.50;99500.00;;;;337058;28;82507;-91
2023/04/18 00:39:42;;;;;;;;;;;10.10;99.90;10.40;99506.00;;;;334816;29;94558;-90
2023/04/18 00:39:54;;;;;;;;;;;10.10;99.90;10.50;99503.00;;;;334269;29;83542;-91
2023/04/18 00:40:06;;;;;;;;;;;10.10;99.90;10.50;99501.00;;;;334750;28;96032;-91
2023/04/18 00:40:18;;;;;;;;;;;10.10;99.90;10.50;99506.00;;;;334162;29;83438;-91
2023/04/18 00:40:30;;;;;;;;;;;10.00;99.90;10.40;99508.00;;;;329752;29;96534;-91
2023/04/18 00:40:42;;;;;;;;;;;10.00;99.90;10.50;99505.00;;;;335678;29;82493;-91
2023/04/18 00:40:54;;;;;;;;;;;10.00;99.90;10.40;99505.00;;;;333535;29;94014;-90
2023/04/18 00:41:06;;;;;;;;;;;10.00;99.90;10.40;99501.00;;;;334778;29;82418;-91
2023/04/18 00:41:19;;;;;;;;;;;10.00;99.90;10.40;99504.00;;;;334832;29;95493;-91
2023/04/18 00:41:30;;;;;;;;;;;10.00;99.90;10.40;99504.00;;;;337155;28;83242;-91
2023/04/18 00:41:42;;;;;;;;;;;10.10;99.90;10.40;99509.00;;;;336112;28;95168;-91
2023/04/18 00:41:54;;;;;;;;;;;10.00;99.90;10.30;99503.00;;;;334195;29;83569;-91
2023/04/18 00:42:06;;;;;;;;;;;10.00;99.90;10.40;99504.00;;;;336121;28;93056;-91
2023/04/18 00:42:20;;;;;;;;;;;10.00;99.90;10.40;99497.00;;;;335733;29;82442;-91
2023/04/18 00:42:32;;;;;;;;;;;10.00;99.90;10.40;99502.00;;;;333443;29;95009;-91
2023/04/18 00:42:44;;;;;;;;;;;10.00;99.90;10.40;99501.00;;;;335412;29;82608;-91
2023/04/18 00:42:56;;;;;;;;;;;10.00;99.90;10.40;99505.00;;;;333759;29;93383;-91
2023/04/18 00:43:07;;;;;;;;;;;10.00;99.90;10.40;99503.00;;;;334419;29;82476;-91
2023/04/18 00:43:22;;;;;;;;;;;10.00;99.90;10.40;99501.00;;;;334735;29;93927;-91
2023/04/18 00:43:34;;;;;;;;;;;10.00;99.90;10.50;99504.00;;;;335535;29;83333;-91
2023/04/18 00:43:46;;;;;;;;;;;10.00;99.90;10.50;99502.00;;;;334768;29;95460;-91
2023/04/18 00:43:57;;;;;;;;;;;10.00;99.90;10.50;99505.00;;;;337857;28;83513;-91
2023/04/18 00:44:09;;;;;;;;;;;10.00;99.90;10.40;99509.00;;;;337391;28;94115;-91
2023/04/18 00:44:21;;;;;;;;;;;10.00;99.90;10.40;99508.00;;;;335483;29;82606;-91
2023/04/18 00:44:33;;;;;;;;;;;10.00;99.90;10.40;99513.00;;;;334664;29;94375;-92
2023/04/18 00:44:45;;;;;;;;;;;10.00;99.90;10.40;99509.00;;;;336822;28;83417;-91
2023/04/18 00:44:57;;;;;;;;;;;10.00;99.90;10.50;99510.00;;;;333474;29;94636;-91
2023/04/18 00:45:09;;;;;;;;;;;10.00;99.90;10.50;99511.00;;;;336822;28;82279;-91
2023/04/18 00:45:21;;;;;;;;;;;10.00;99.90;10.50;99511.00;;;;333251;29;95538;-91
2023/04/18 00:45:33;;;;;;;;;;;10.00;99.90;10.50;99500.00;;;;332735;29;82564;-91
2023/04/18 00:45:44;;;;;;;;;;;10.00;99.90;10.40;99504.00;;;;333450;29;96590;-91
2023/04/18 00:46:00;;;;;;;;;;;10.00;99.90;10.40;99511.00;;;;335567;29;82426;-91
2023/04/18 00:46:12;;;;;;;;;;;10.00;99.90;10.30;99511.00;;;;332081;29;93625;-90
2023/04/18 00:46:24;;;;;;;;;;;10.00;99.90;10.30;99512.00;;;;336601;28;83526;-91
2023/04/18 00:46:36;;;;;;;;;;;10.00;99.90;10.40;99507.00;;;;335733;28;96599;-89
2023/04/18 00:46:48;;;;;;;;;;;10.00;99.90;10.50;99511.00;;;;338217;28;82261;-91
2023/04/18 00:46:59;;;;;;;;;;;10.00;99.90;10.40;99504.00;;;;333513;29;95403;-91
2023/04/18 00:47:11;;;;;;;;;;;10.00;99.90;10.40;99508.00;;;;335477;29;83383;-91
2023/04/18 00:47:24;;;;;;;;;;;10.00;99.90;10.40;99509.00;;;;332160;29;94700;-91
2023/04/18 00:47:36;;;;;;;;;;;10.00;99.90;10.40;99508.00;;;;332915;29;83379;-90
2023/04/18 00:47:48;;;;;;;;;;;10.00;99.90;10.20;99507.00;;;;334499;29;95170;-91
2023/04/18 00:48:00;;;;;;;;;;;10.00;99.90;10.30;99518.00;;;;335270;29;83307;-91
2023/04/18 00:48:12;;;;;;;;;;;10.00;99.90;10.30;99510.00;;;;334744;29;93158;-92
2023/04/18 00:48:23;;;;;;;;;;;10.00;99.90;10.30;99516.00;;;;338208;28;82522;-91
2023/04/18 00:48:37;;;;;;;;;;;10.00;99.90;10.40;99510.00;;;;333340;29;94426;-91
2023/04/18 00:48:49;;;;;;;;;;;10.00;99.90;10.40;99509.00;;;;336878;28;83295;-91
2023/04/18 00:49:01;;;;;;;;;;;10.00;99.90;10.40;99510.00;;;;334639;29;95465;-91
2023/04/18 00:49:13;;;;;;;;;;;10.00;99.90;10.40;99515.00;;;;335515;29;82512;-91
2023/04/18 00:49:25;;;;;;;;;;;10.00;99.90;10.40;99510.00;;;;335937;28;95411;-91
2023/04/18 00:49:37;;;;;;;;;;;10.00;99.90;10.50;99512.00;;;;336859;28;83330;-91
2023/04/18 00:49:48;;;;;;;;;;;10.00;99.90;10.40;99508.00;;;;337103;28;95774;-91
2023/04/18 00:50:00;;;;;;;;;;;10.00;99.90;10.30;99510.00;;;;337894;28;82492;-91
2023/04/18 00:50:12;;;;;;;;;;;10.00;99.90;10.40;99507.00;;;;336014;28;96658;-91
2023/04/18 00:50:24;;;;;;;;;;;10.00;99.90;10.30;99513.00;;;;335504;29;82507;-91
2023/04/18 00:50:36;;;;;;;;;;;10.00;99.90;10.30;99506.00;;;;334404;29;96717;-90
2023/04/18 00:50:48;;;;;;;;;;;10.00;99.90;10.40;99510.00;;;;336842;28;83334;-91
2023/04/18 00:50:59;;;;;;;;;;;10.00;99.90;10.40;99505.00;;;;333475;29;95673;-92
2023/04/18 00:51:11;;;;;;;;;;;10.00;99.90;10.40;99497.00;;;;334179;29;83271;-91
2023/04/18 00:51:23;;;;;;;;;;;10.00;99.90;10.40;99508.00;;;;335905;28;94795;-91
2023/04/18 00:51:35;;;;;;;;;;;10.00;99.90;10.50;99509.00;;;;335415;29;82464;-91
2023/04/18 00:51:47;;;;;;;;;;;10.00;99.90;10.50;99502.00;;;;333480;29;95923;-91
2023/04/18 00:51:59;;;;;;;;;;;10.00;99.90;10.40;99501.00;;;;334270;29;83410;-91
2023/04/18 00:52:11;;;;;;;;;;;10.00;99.90;10.40;99511.00;;;;335840;28;95542;-91
2023/04/18 00:52:24;;;;;;;;;;;10.00;99.90;10.40;99505.00;;;;336871;28;83420;-91
2023/04/18 00:52:36;;;;;;;;;;;10.00;99.90;10.40;99506.00;;;;333286;29;96838;-91
2023/04/18 00:52:48;;;;;;;;;;;10.00;99.90;10.40;99504.00;;;;335561;29;83344;-91
2023/04/18 00:53:00;;;;;;;;;;;10.00;99.90;10.20;99507.00;;;;337412;28;95726;-91
2023/04/18 00:53:12;;;;;;;;;;;10.00;99.90;10.20;99509.00;;;;334221;29;83552;-91
2023/04/18 00:53:24;;;;;;;;;;;10.00;99.90;10.10;99512.00;;;;334512;29;94017;-91
2023/04/18 00:53:35;;;;;;;;;;;10.00;99.90;10.30;99504.00;;;;336738;28;83297;-91
2023/04/18 00:53:47;;;;;;;;;;;10.00;99.90;10.30;99509.00;;;;335890;28;94535;-91
2023/04/18 00:53:59;;;;;;;;;;;9.90;99.90;10.40;99507.00;;;;335259;29;83398;-91
2023/04/18 00:54:12;;;;;;;;;;;10.00;99.90;10.40;99517.00;;;;337102;28;95552;-91
2023/04/18 00:54:24;;;;;;;;;;;9.90;99.90;10.40;99506.00;;;;334190;29;82598;-91
2023/04/18 00:54:36;;;;;;;;;;;10.00;99.90;10.40;99513.00;;;;334532;29;96789;-91
2023/04/18 00:54:48;;;;;;;;;;;10.00;99.90;10.30;99511.00;;;;336474;28;82490;-92
2023/04/18 00:55:05;;;;;;;;;;;10.00;99.90;10.40;99516.00;;;;334501;29;94600;-91
2023/04/18 00:55:17;;;;;;;;;;;10.00;99.90;10.40;99514.00;;;;334132;29;83339;-91
2023/04/18 00:55:29;;;;;;;;;;;10.00;99.90;10.20;99510.00;;;;333436;29;95675;-91
2023/04/18 00:55:41;;;;;;;;;;;9.90;99.90;10.30;99510.00;;;;335233;29;83463;-90
2023/04/18 00:55:53;;;;;;;;;;;9.90;99.90;10.40;99516.00;;;;333199;29;94481;-91
2023/04/18 00:56:05;;;;;;;;;;;10.00;99.90;10.40;99510.00;;;;335476;29;82513;-91
2023/04/18 00:56:17;;;;;;;;;;;10.00;99.90;10.40;99510.00;;;;334593;29;94525;-91
2023/04/18 00:56:29;;;;;;;;;;;10.00;99.90;10.40;99511.00;;;;335347;29;82440;-91
2023/04/18 00:56:41;;;;;;;;;;;10.00;99.90;10.40;99506.00;;;;335860;28;96423;-91
2023/04/18 00:56:53;;;;;;;;;;;10.00;99.90;10.40;99505.00;;;;335393;29;83395;-91
2023/04/18 00:57:04;;;;;;;;;;;10.00;99.90;10.30;99510.00;;;;336105;28;93118;-90
2023/04/18 00:57:16;;;;;;;;;;;10.00;99.90;10.40;99509.00;;;;332984;29;83446;-90
2023/04/18 00:57:28;;;;;;;;;;;10.00;99.90;10.30;99507.00;;;;334490;29;96117;-90
2023/04/18 00:57:40;;;;;;;;;;;10.00;99.90;10.40;99502.00;;;;334286;29;83180;-91
2023/04/18 00:57:52;;;;;;;;;;;10.00;99.90;10.40;99508.00;;;;334573;29;95425;-91
2023/04/18 00:58:05;;;;;;;;;;;10.00;99.90;10.30;99510.00;;;;338029;28;83458;-91
2023/04/18 00:58:17;;;;;;;;;;;10.00;99.90;10.30;99507.00;;;;335863;28;95571;-90
2023/04/18 00:58:28;;;;;;;;;;;10.00;99.90;10.30;99507.00;;;;335544;29;83418;-90
2023/04/18 00:58:40;;;;;;;;;;;9.90;99.90;10.20;99516.00;;;;334680;29;94750;-90
2023/04/18 00:58:52;;;;;;;;;;;9.90;99.90;10.20;99518.00;;;;333924;29;83490;-90
2023/04/18 00:59:05;;;;;;;;;;;9.90;99.90;10.30;99512.00;;;;336066;28;94663;-91
2023/04/18 00:59:17;;;;;;;;;;;10.00;99.90;10.30;99513.00;;;;334000;29;82752;-91
2023/04/18 00:59:29;;;;;;;;;;;10.00;99.90;10.30;99509.00;;;;333338;29;97353;-91
2023/04/18 00:59:41;;;;;;;;;;;9.90;99.90;10.30;99495.00;;;;335418;29;83293;-92
2023/04/18 00:59:53;;;;;;;;;;;9.90;99.90;10.30;99506.00;;;;334505;29;95615;-91
2023/04/18 01:00:14;;;;;;;;;;;10.00;99.90;10.30;99504.00;;;;333897;29;83565;-91
2023/04/18 01:00:26;;;;;;;;;;;10.00;99.90;10.30;99509.00;;;;333112;29;95521;-91
2023/04/18 01:00:38;;;;;;;;;;;10.00;99.90;10.30;99504.00;;;;335242;29;83612;-91
2023/04/18 01:00:50;;;;;;;;;;;9.90;99.90;10.30;99506.00;;;;334394;29;96638;-91